Time;durP1;ratioP1;P1;durP2;ratioP2;P2;SDS_P1;SDS_P2;PMS_P1;PMS_P2;Temp;Humidity;BMP_temperature;BMP_pressure;BME280_temperature;BME280_humidity;BME280_pressure;Samples;Min_cycle;Max_cycle;Signal;HPM_P1;HPM_P2
2022/10/13 00:00:31;;;;;;;19.80;13.90;;;13.50;99.90;;;;;;5137710;27;20426;-72
2022/10/13 00:03:01;;;;;;;22.70;15.50;;;13.50;99.90;;;;;;5137919;27;20432;-73
2022/10/13 00:05:28;;;;;;;23.73;16.70;;;13.50;99.90;;;;;;5137627;27;20398;-73
2022/10/13 00:07:54;;;;;;;23.80;16.17;;;13.40;99.90;;;;;;5137929;27;20403;-73
2022/10/13 00:10:20;;;;;;;21.93;15.13;;;13.40;99.90;;;;;;5137421;27;20831;-73
2022/10/13 00:12:46;;;;;;;26.03;15.73;;;13.40;99.90;;;;;;5119166;27;20407;-73
2022/10/13 00:15:11;;;;;;;23.30;15.00;;;13.30;99.90;;;;;;5137372;27;20209;-73
2022/10/13 00:17:37;;;;;;;24.23;15.77;;;13.30;99.90;;;;;;5137769;27;20203;-72
2022/10/13 00:20:04;;;;;;;24.70;15.57;;;13.30;99.90;;;;;;5118952;27;20668;-73
2022/10/13 00:22:31;;;;;;;26.33;14.77;;;13.30;99.90;;;;;;5137269;27;20167;-72
2022/10/13 00:24:56;;;;;;;23.70;14.53;;;13.30;99.90;;;;;;5137392;27;20908;-73
2022/10/13 00:27:22;;;;;;;21.53;14.83;;;13.20;99.90;;;;;;5118878;27;20516;-73
2022/10/13 00:29:48;;;;;;;24.07;15.73;;;13.20;99.90;;;;;;5137097;27;20239;-73
2022/10/13 00:32:14;;;;;;;20.67;16.07;;;13.10;99.90;;;;;;5118688;27;20919;-73
2022/10/13 00:34:39;;;;;;;20.60;16.00;;;13.10;99.90;;;;;;5137135;27;20648;-73
2022/10/13 00:37:05;;;;;;;25.30;16.60;;;13.10;99.90;;;;;;5117783;27;20167;-73
2022/10/13 00:39:31;;;;;;;28.60;15.43;;;13.10;99.90;;;;;;5137012;27;20574;-73
2022/10/13 00:41:58;;;;;;;22.60;14.47;;;13.00;99.90;;;;;;5136908;27;20483;-73
2022/10/13 00:44:59;;;;;;;22.53;15.13;;;13.00;99.90;;;;;;5136883;27;20175;-72
2022/10/13 00:47:31;;;;;;;22.77;16.20;;;12.90;99.90;;;;;;5136961;27;20422;-73
2022/10/13 00:49:58;;;;;;;20.90;14.87;;;12.90;99.90;;;;;;5136700;27;20508;-72
2022/10/13 00:52:25;;;;;;;24.20;16.77;;;12.90;99.90;;;;;;5136763;27;20433;-73
2022/10/13 00:54:54;;;;;;;20.80;14.80;;;12.90;99.90;;;;;;5118225;27;20436;-73
2022/10/13 00:57:19;;;;;;;21.00;14.60;;;12.80;99.90;;;;;;5118266;27;20444;-73
2022/10/13 00:59:46;;;;;;;28.07;15.00;;;12.80;99.90;;;;;;5118137;27;20464;-72
2022/10/13 01:02:12;;;;;;;21.20;15.13;;;12.80;99.90;;;;;;5136556;27;20167;-73
2022/10/13 01:04:42;;;;;;;23.27;15.50;;;12.70;99.90;;;;;;5136578;27;20437;-73
2022/10/13 01:07:09;;;;;;;21.63;14.20;;;12.70;99.90;;;;;;5136494;27;20620;-73
2022/10/13 01:09:38;;;;;;;21.67;15.20;;;12.70;99.90;;;;;;5136339;27;20530;-72
2022/10/13 01:12:22;;;;;;;19.10;14.03;;;12.70;99.90;;;;;;5136203;27;20459;-73
2022/10/13 01:15:02;;;;;;;23.40;15.20;;;12.60;99.90;;;;;;5117941;27;20970;-73
2022/10/13 01:17:30;;;;;;;22.67;15.60;;;12.60;99.90;;;;;;5136498;27;20422;-72
2022/10/13 01:20:14;;;;;;;21.30;14.17;;;12.50;99.90;;;;;;5136185;27;20935;-73
2022/10/13 01:23:02;;;;;;;20.83;13.33;;;12.50;99.90;;;;;;5136056;27;20411;-73
2022/10/13 01:25:47;;;;;;;19.30;14.10;;;12.50;99.90;;;;;;5136038;27;20459;-73
2022/10/13 01:28:44;;;;;;;24.83;15.27;;;12.50;99.90;;;;;;5135040;27;20439;-73
2022/10/13 01:31:26;;;;;;;29.93;15.20;;;12.40;99.90;;;;;;5135834;27;20466;-73
2022/10/13 01:34:02;;;;;;;22.30;15.07;;;12.40;99.90;;;;;;5136392;27;20502;-74
2022/10/13 01:36:35;;;;;;;18.83;14.20;;;12.40;99.90;;;;;;5117469;27;20529;-73
2022/10/13 01:39:12;;;;;;;25.20;15.90;;;12.40;99.90;;;;;;5136347;27;20774;-73
2022/10/13 01:41:41;;;;;;;21.80;15.02;;;12.30;99.90;;;;;;5117444;27;20406;-73
2022/10/13 01:44:25;;;;;;;19.77;13.90;;;12.30;99.90;;;;;;5117422;27;20231;-73
2022/10/13 01:46:51;;;;;;;21.08;13.48;;;12.30;99.90;;;;;;5117298;27;20200;-73
2022/10/13 01:49:20;;;;;;;26.27;13.60;;;12.20;99.90;;;;;;5135473;27;20224;-73
2022/10/13 01:51:47;;;;;;;18.93;14.20;;;12.20;99.90;;;;;;5135516;27;20436;-73
2022/10/13 01:54:13;;;;;;;17.60;14.03;;;12.20;99.90;;;;;;5135536;27;20919;-73
2022/10/13 01:56:38;;;;;;;24.33;14.70;;;12.10;99.90;;;;;;5117224;27;20395;-73
2022/10/13 01:59:12;;;;;;;21.57;14.50;;;12.10;99.90;;;;;;5135941;27;20169;-72
2022/10/13 02:02:19;;;;;;;19.77;13.00;;;12.10;99.90;;;;;;5117033;27;20270;-73
2022/10/13 02:04:59;;;;;;;21.93;13.93;;;12.10;99.90;;;;;;5130596;27;20683;-73
2022/10/13 02:07:32;;;;;;;28.43;16.03;;;12.10;99.90;;;;;;5135454;27;20426;-73
2022/10/13 02:10:09;;;;;;;20.27;14.45;;;12.00;99.90;;;;;;5116710;27;20508;-73
2022/10/13 02:12:44;;;;;;;18.98;13.25;;;12.10;99.90;;;;;;5135431;27;20224;-73
2022/10/13 02:15:15;;;;;;;18.20;13.75;;;12.00;99.90;;;;;;5116613;27;20199;-72
2022/10/13 02:17:41;;;;;;;25.25;15.82;;;12.10;99.90;;;;;;5116969;27;20190;-72
2022/10/13 02:20:08;;;;;;;20.20;13.53;;;12.10;99.90;;;;;;5135084;27;20191;-73
2022/10/13 02:22:41;;;;;;;22.73;14.57;;;12.10;99.90;;;;;;5116526;27;20182;-73
2022/10/13 02:25:07;;;;;;;22.70;14.80;;;12.10;99.90;;;;;;5134966;27;20510;-73
2022/10/13 02:27:33;;;;;;;27.63;14.60;;;12.10;99.90;;;;;;5116650;27;20691;-73
2022/10/13 02:29:58;;;;;;;24.87;14.70;;;12.10;99.90;;;;;;5134905;27;20466;-73
2022/10/13 02:32:24;;;;;;;17.57;13.53;;;12.10;99.90;;;;;;5135053;27;20209;-72
2022/10/13 02:34:50;;;;;;;23.27;15.60;;;12.10;99.90;;;;;;5116548;27;20205;-73
2022/10/13 02:37:16;;;;;;;19.90;14.57;;;12.00;99.90;;;;;;5134943;27;20175;-73
2022/10/13 02:39:42;;;;;;;21.60;14.53;;;12.00;99.90;;;;;;5134774;27;20194;-73
2022/10/13 02:42:08;;;;;;;23.70;14.37;;;11.90;99.90;;;;;;5134847;27;20407;-73
2022/10/13 02:44:33;;;;;;;22.50;16.37;;;11.90;99.90;;;;;;5116327;27;20199;-73
2022/10/13 02:46:59;;;;;;;24.33;14.70;;;11.90;99.90;;;;;;5134731;27;20648;-73
2022/10/13 02:49:25;;;;;;;20.10;14.43;;;11.90;99.90;;;;;;5134826;28;20174;-73
2022/10/13 02:51:52;;;;;;;22.40;15.67;;;11.80;99.90;;;;;;5134648;28;20796;-73
2022/10/13 02:54:17;;;;;;;24.40;15.37;;;11.80;99.90;;;;;;5116225;28;20269;-73
2022/10/13 02:56:43;;;;;;;23.60;14.97;;;11.80;99.90;;;;;;5116406;28;20880;-73
2022/10/13 02:59:09;;;;;;;22.30;15.30;;;11.80;99.90;;;;;;5135062;28;20300;-73
2022/10/13 03:01:39;;;;;;;21.57;15.30;;;11.80;99.90;;;;;;5119409;27;20647;-73
2022/10/13 03:04:06;;;;;;;22.55;14.90;;;11.70;99.90;;;;;;5139445;27;20186;-73
2022/10/13 03:06:31;;;;;;;21.08;15.43;;;11.80;99.90;;;;;;5120412;27;20202;-73
2022/10/13 03:08:58;;;;;;;27.07;14.77;;;11.70;99.90;;;;;;5138727;27;20190;-72
2022/10/13 03:11:23;;;;;;;19.85;14.20;;;11.70;99.90;;;;;;5120194;27;20283;-72
2022/10/13 03:13:49;;;;;;;24.70;14.67;;;11.70;99.90;;;;;;5139116;27;20631;-73
2022/10/13 03:16:14;;;;;;;22.30;15.57;;;11.70;99.90;;;;;;5138655;27;20655;-73
2022/10/13 03:18:40;;;;;;;25.07;14.80;;;11.70;99.90;;;;;;5139055;27;20266;-73
2022/10/13 03:21:06;;;;;;;19.50;13.70;;;11.70;99.90;;;;;;5120102;27;20659;-74
2022/10/13 03:23:32;;;;;;;21.17;13.90;;;11.70;99.90;;;;;;5138537;27;20626;-73
2022/10/13 03:25:57;;;;;;;23.80;13.40;;;11.80;99.90;;;;;;5119945;27;20443;-73
2022/10/13 03:28:23;;;;;;;23.13;14.70;;;11.80;99.90;;;;;;5120200;27;20179;-73
2022/10/13 03:30:49;;;;;;;18.80;13.50;;;11.90;99.90;;;;;;5138323;27;20467;-72
2022/10/13 03:33:15;;;;;;;22.27;13.73;;;11.90;99.90;;;;;;5120020;27;20781;-72
2022/10/13 03:35:40;;;;;;;24.07;16.00;;;11.90;99.90;;;;;;5138317;27;20447;-73
2022/10/13 03:38:06;;;;;;;26.13;15.37;;;12.00;99.90;;;;;;5138261;27;20182;-73
2022/10/13 03:40:35;;;;;;;21.63;15.47;;;12.00;99.90;;;;;;5138109;27;20555;-73
2022/10/13 03:43:00;;;;;;;23.40;15.53;;;12.00;99.90;;;;;;5119847;27;20525;-73
2022/10/13 03:45:26;;;;;;;19.77;14.27;;;12.00;99.90;;;;;;5138092;27;20462;-73
2022/10/13 03:47:52;;;;;;;17.70;13.63;;;12.00;99.90;;;;;;5119598;27;20171;-73
2022/10/13 03:50:17;;;;;;;23.90;13.77;;;12.00;99.90;;;;;;5136775;27;20222;-73
2022/10/13 03:52:43;;;;;;;20.10;13.90;;;12.00;99.90;;;;;;5137900;27;20556;-73
2022/10/13 03:55:08;;;;;;;26.70;15.23;;;12.10;99.90;;;;;;5119474;27;20618;-72
2022/10/13 03:57:34;;;;;;;19.20;14.13;;;12.10;99.90;;;;;;5137944;27;20175;-73
2022/10/13 04:00:00;;;;;;;30.87;19.07;;;12.10;99.90;;;;;;5137796;27;20191;-72
2022/10/13 04:02:26;;;;;;;29.50;18.08;;;12.10;99.90;;;;;;5137841;27;20172;-72
2022/10/13 04:04:52;;;;;;;23.02;15.25;;;12.10;99.90;;;;;;5137720;27;20556;-72
2022/10/13 04:07:17;;;;;;;24.13;14.57;;;12.10;99.90;;;;;;5137718;27;20186;-72
2022/10/13 04:09:43;;;;;;;22.07;14.40;;;12.20;99.90;;;;;;5137724;27;20195;-73
2022/10/13 04:12:09;;;;;;;20.13;13.93;;;12.20;99.90;;;;;;5117679;27;20218;-72
2022/10/13 04:14:34;;;;;;;24.43;15.60;;;12.20;99.90;;;;;;5137409;27;20202;-73
2022/10/13 04:17:00;;;;;;;23.33;14.63;;;12.20;99.90;;;;;;5118891;27;20179;-73
2022/10/13 04:19:25;;;;;;;23.77;15.17;;;12.20;99.90;;;;;;5137316;27;20239;-73
2022/10/13 04:21:51;;;;;;;18.77;14.13;;;12.20;99.90;;;;;;5137408;27;20219;-73
2022/10/13 04:24:17;;;;;;;21.83;13.80;;;12.20;99.90;;;;;;5137038;27;20667;-72
2022/10/13 04:26:43;;;;;;;18.93;13.43;;;12.30;99.90;;;;;;5137315;27;20168;-73
2022/10/13 04:29:10;;;;;;;22.58;14.55;;;12.30;99.90;;;;;;5118587;27;20175;-72
2022/10/13 04:31:37;;;;;;;22.90;14.70;;;12.30;99.90;;;;;;5136067;27;20211;-72
2022/10/13 04:34:03;;;;;;;23.02;14.02;;;12.30;99.90;;;;;;5137483;27;20760;-72
2022/10/13 04:36:28;;;;;;;20.43;14.37;;;12.40;99.90;;;;;;5137078;27;20273;-73
2022/10/13 04:38:54;;;;;;;25.30;14.53;;;12.40;99.90;;;;;;5118811;27;20476;-72
2022/10/13 04:41:21;;;;;;;21.33;14.40;;;12.40;99.90;;;;;;5136723;27;20203;-73
2022/10/13 04:43:48;;;;;;;20.70;13.80;;;12.40;99.90;;;;;;5136861;27;20426;-73
2022/10/13 04:46:17;;;;;;;19.07;14.60;;;12.40;99.90;;;;;;5136812;27;20426;-72
2022/10/13 04:48:44;;;;;;;21.73;14.43;;;12.40;99.90;;;;;;5117969;27;20423;-72
2022/10/13 04:51:12;;;;;;;21.77;15.07;;;12.40;99.90;;;;;;5117421;27;20699;-73
2022/10/13 04:53:39;;;;;;;21.45;13.98;;;12.30;99.90;;;;;;5130737;27;20477;-72
2022/10/13 04:56:10;;;;;;;22.87;14.30;;;12.30;99.90;;;;;;5115199;27;20748;-73
2022/10/13 04:58:37;;;;;;;20.67;13.73;;;12.30;99.90;;;;;;5136608;27;20438;-73
2022/10/13 05:01:05;;;;;;;22.60;15.03;;;12.20;99.90;;;;;;5117441;27;20427;-72
2022/10/13 05:03:31;;;;;;;27.63;15.43;;;12.20;99.90;;;;;;5116178;27;20441;-72
2022/10/13 05:05:57;;;;;;;20.95;13.45;;;12.20;99.90;;;;;;5114547;27;20450;-73
2022/10/13 05:08:23;;;;;;;19.53;15.13;;;12.20;99.90;;;;;;5134039;27;20175;-72
2022/10/13 05:10:56;;;;;;;18.70;12.43;;;12.20;99.90;;;;;;5115825;27;20215;-73
2022/10/13 05:13:22;;;;;;;21.27;14.77;;;12.10;99.90;;;;;;5115558;27;20219;-73
2022/10/13 05:15:47;;;;;;;20.60;14.60;;;12.10;99.90;;;;;;5117715;27;20440;-73
2022/10/13 05:18:13;;;;;;;24.60;14.10;;;12.10;99.90;;;;;;5115544;27;20411;-73
2022/10/13 05:20:38;;;;;;;22.87;14.90;;;12.10;99.90;;;;;;5114365;27;20202;-73
2022/10/13 05:23:04;;;;;;;25.00;14.70;;;12.00;99.90;;;;;;5114460;27;20239;-73
2022/10/13 05:25:29;;;;;;;24.03;15.97;;;12.00;99.90;;;;;;5133741;27;20725;-72
2022/10/13 05:27:55;;;;;;;22.97;14.97;;;11.90;99.90;;;;;;5134070;27;20198;-72
2022/10/13 05:30:21;;;;;;;26.37;15.50;;;11.80;99.90;;;;;;5115359;27;20210;-73
2022/10/13 05:32:46;;;;;;;23.83;15.60;;;11.80;99.90;;;;;;5133923;27;20197;-73
2022/10/13 05:35:12;;;;;;;28.47;15.40;;;11.70;99.90;;;;;;5134390;27;20195;-72
2022/10/13 05:37:37;;;;;;;22.47;14.83;;;11.60;99.90;;;;;;5115547;27;20232;-73
2022/10/13 05:40:04;;;;;;;26.50;18.03;;;11.60;99.90;;;;;;5116248;27;20229;-72
2022/10/13 05:42:29;;;;;;;25.70;18.45;;;11.50;99.90;;;;;;5134948;27;20186;-72
2022/10/13 05:44:56;;;;;;;22.37;16.97;;;11.50;99.90;;;;;;5133036;27;20582;-73
2022/10/13 05:47:25;;;;;;;23.40;15.52;;;11.50;99.90;;;;;;5132971;27;20189;-72
2022/10/13 05:49:51;;;;;;;26.48;15.38;;;11.50;99.90;;;;;;5132776;27;20195;-73
2022/10/13 05:52:17;;;;;;;24.30;16.30;;;11.50;99.90;;;;;;5132500;27;20252;-74
2022/10/13 05:54:46;;;;;;;30.85;15.88;;;11.60;99.90;;;;;;5131407;27;20566;-72
2022/10/13 05:57:20;;;;;;;22.85;15.90;;;11.60;99.90;;;;;;5131904;27;20175;-72
2022/10/13 05:59:54;;;;;;;20.65;15.65;;;11.60;99.90;;;;;;5131911;27;20206;-72
2022/10/13 06:02:23;;;;;;;24.35;15.25;;;11.70;99.90;;;;;;5104615;27;20184;-73
2022/10/13 06:04:52;;;;;;;23.23;17.00;;;11.70;99.90;;;;;;5121932;27;20188;-72
2022/10/13 06:07:18;;;;;;;22.15;15.00;;;11.70;99.90;;;;;;5125115;27;20183;-72
2022/10/13 06:09:44;;;;;;;23.20;15.80;;;11.80;99.90;;;;;;5123772;27;20195;-73
2022/10/13 06:12:10;;;;;;;20.27;14.60;;;11.80;99.90;;;;;;5119473;27;20454;-73
2022/10/13 06:14:36;;;;;;;23.60;15.03;;;11.90;99.90;;;;;;5125116;27;20439;-73
2022/10/13 06:17:01;;;;;;;19.40;14.40;;;11.90;99.90;;;;;;5106774;27;20403;-73
2022/10/13 06:19:27;;;;;;;23.27;14.73;;;12.00;99.90;;;;;;5105864;27;20312;-72
2022/10/13 06:21:52;;;;;;;24.57;15.20;;;12.00;99.90;;;;;;5136127;27;20647;-72
2022/10/13 06:24:18;;;;;;;24.27;15.37;;;12.10;99.90;;;;;;5113591;27;20241;-73
2022/10/13 06:26:43;;;;;;;20.07;13.90;;;12.10;99.90;;;;;;5132187;27;20175;-72
2022/10/13 06:29:09;;;;;;;20.50;13.80;;;12.20;99.90;;;;;;5131094;27;20183;-74
2022/10/13 06:31:35;;;;;;;23.57;15.43;;;12.30;99.90;;;;;;5121925;27;20226;-72
2022/10/13 06:34:00;;;;;;;21.30;15.20;;;12.40;99.90;;;;;;5132578;27;20243;-73
2022/10/13 06:36:26;;;;;;;22.40;14.00;;;12.50;99.90;;;;;;5132637;27;20244;-72
2022/10/13 06:38:52;;;;;;;17.80;13.33;;;12.50;99.90;;;;;;5114279;28;20176;-72
2022/10/13 06:41:17;;;;;;;15.00;10.73;;;12.60;99.90;;;;;;5128110;27;20206;-72
2022/10/13 06:43:43;;;;;;;18.27;12.63;;;12.70;99.90;;;;;;5121725;27;20197;-73
2022/10/13 06:46:09;;;;;;;15.20;11.63;;;12.80;99.90;;;;;;5105918;27;20686;-73
2022/10/13 06:48:35;;;;;;;18.20;12.40;;;12.90;99.90;;;;;;5102131;28;20240;-72
2022/10/13 06:51:07;;;;;;;15.77;12.23;;;13.00;99.90;;;;;;5104316;28;20467;-72
2022/10/13 06:53:33;;;;;;;17.57;12.37;;;13.10;99.90;;;;;;5125244;28;20175;-73
2022/10/13 06:56:00;;;;;;;18.00;11.70;;;13.20;99.90;;;;;;5127937;28;20787;-73
2022/10/13 06:58:26;;;;;;;16.97;12.43;;;13.30;99.90;;;;;;5102732;28;20427;-73
2022/10/13 07:00:52;;;;;;;14.00;11.03;;;13.40;99.90;;;;;;5127513;27;20434;-72
2022/10/13 07:03:18;;;;;;;22.97;11.80;;;13.50;99.90;;;;;;5128778;28;20438;-72
2022/10/13 07:05:44;;;;;;;19.03;12.50;;;13.60;99.90;;;;;;5122455;28;20408;-73
2022/10/13 07:08:10;;;;;;;18.90;12.53;;;13.70;99.90;;;;;;5132332;28;20917;-73
2022/10/13 07:10:39;;;;;;;17.70;12.63;;;13.80;99.90;;;;;;5119366;28;20262;-73
2022/10/13 07:13:05;;;;;;;21.53;11.77;;;13.90;99.90;;;;;;5108836;28;20179;-74
2022/10/13 07:15:31;;;;;;;13.63;10.93;;;14.00;99.90;;;;;;5129673;27;20962;-72
2022/10/13 07:17:56;;;;;;;14.60;11.33;;;14.10;99.90;;;;;;5134997;27;20183;-73
2022/10/13 07:20:23;;;;;;;15.73;10.83;;;14.30;99.90;;;;;;5129319;27;20206;-72
2022/10/13 07:22:49;;;;;;;14.03;9.83;;;14.40;99.90;;;;;;5134152;27;20609;-73
2022/10/13 07:25:15;;;;;;;16.30;11.13;;;14.50;99.90;;;;;;5132147;27;20905;-73
2022/10/13 07:27:41;;;;;;;15.20;10.10;;;14.60;99.90;;;;;;5116107;28;20186;-73
2022/10/13 07:30:08;;;;;;;13.10;11.00;;;14.80;99.90;;;;;;5127666;28;21014;-73
2022/10/13 07:32:33;;;;;;;15.70;10.23;;;14.90;99.90;;;;;;5131092;28;20926;-72
2022/10/13 07:34:59;;;;;;;13.67;10.03;;;15.10;99.90;;;;;;5130487;28;20432;-73
2022/10/13 07:37:25;;;;;;;16.80;10.30;;;15.20;99.90;;;;;;5130742;28;20415;-73
2022/10/13 07:39:51;;;;;;;13.57;10.13;;;15.40;99.90;;;;;;5113153;28;20207;-73
2022/10/13 07:42:17;;;;;;;14.20;9.90;;;15.60;99.90;;;;;;5129671;28;20434;-74
2022/10/13 07:44:43;;;;;;;13.50;9.70;;;15.90;99.90;;;;;;5107340;28;20446;-73
2022/10/13 07:47:08;;;;;;;11.10;9.67;;;16.20;99.90;;;;;;5106764;27;20308;-73
2022/10/13 07:49:34;;;;;;;13.43;8.83;;;16.50;99.90;;;;;;5113026;27;20570;-73
2022/10/13 07:52:00;;;;;;;11.20;9.30;;;17.00;99.90;;;;;;5133044;27;20202;-73
2022/10/13 07:54:26;;;;;;;13.40;9.10;;;17.60;99.90;;;;;;5131838;27;20240;-74
2022/10/13 07:56:53;;;;;;;11.73;9.10;;;18.40;99.90;;;;;;5129549;27;21315;-74
2022/10/13 07:59:19;;;;;;;11.20;8.60;;;19.20;99.90;;;;;;5111367;27;21012;-74
2022/10/13 08:01:44;;;;;;;12.00;8.00;;;20.00;99.90;;;;;;5112641;27;20426;-73
2022/10/13 08:04:10;;;;;;;8.83;7.53;;;20.80;99.90;;;;;;5132261;27;20671;-73
2022/10/13 08:06:35;;;;;;;10.13;8.30;;;21.60;99.90;;;;;;5133550;27;20189;-74
2022/10/13 08:09:03;;;;;;;9.53;7.63;;;22.50;99.90;;;;;;5103512;27;20319;-74
2022/10/13 08:11:29;;;;;;;9.07;7.77;;;23.10;99.90;;;;;;5111806;27;20242;-74
2022/10/13 08:13:59;;;;;;;8.57;7.57;;;23.70;99.90;;;;;;5131210;27;20776;-74
2022/10/13 08:16:25;;;;;;;10.00;7.37;;;24.40;99.90;;;;;;5115035;27;20458;-74
2022/10/13 08:18:51;;;;;;;9.13;8.20;;;24.90;99.90;;;;;;5134941;27;20421;-74
2022/10/13 08:21:18;;;;;;;9.30;7.43;;;25.40;99.90;;;;;;5112927;27;20472;-74
2022/10/13 08:23:44;;;;;;;8.13;6.93;;;25.80;99.90;;;;;;5109667;28;20519;-74
2022/10/13 08:26:22;;;;;;;8.80;7.30;;;26.20;99.90;;;;;;5133318;27;20446;-73
2022/10/13 08:28:49;;;;;;;8.67;7.00;;;26.60;99.90;;;;;;5117087;27;20429;-74
2022/10/13 08:31:15;;;;;;;7.93;7.13;;;27.10;99.80;;;;;;5112981;27;20868;-74
2022/10/13 08:33:40;;;;;;;8.00;7.10;;;27.50;98.90;;;;;;5112150;27;20428;-74
2022/10/13 08:36:07;;;;;;;6.90;6.20;;;27.80;97.30;;;;;;5130058;27;20211;-74
2022/10/13 08:38:33;;;;;;;8.80;7.20;;;28.10;96.90;;;;;;5112398;27;20269;-73
2022/10/13 08:40:59;;;;;;;10.80;6.27;;;28.30;95.90;;;;;;5129533;27;20479;-73
2022/10/13 08:43:25;;;;;;;7.40;6.70;;;28.30;95.00;;;;;;5131950;27;20427;-73
2022/10/13 08:45:58;;;;;;;6.30;5.70;;;28.00;95.10;;;;;;5133551;27;20431;-74
2022/10/13 08:48:29;;;;;;;8.40;7.13;;;27.40;95.10;;;;;;5135855;27;20694;-74
2022/10/13 08:50:59;;;;;;;8.00;6.80;;;26.80;95.00;;;;;;5121073;27;20485;-74
2022/10/13 08:53:40;;;;;;;8.50;6.27;;;26.20;94.80;;;;;;5109186;27;20484;-73
2022/10/13 08:56:17;;;;;;;7.20;5.80;;;25.70;94.80;;;;;;5125476;27;20454;-73
2022/10/13 08:58:43;;;;;;;5.63;5.03;;;25.30;95.10;;;;;;5109940;27;20437;-73
2022/10/13 09:01:14;;;;;;;8.47;5.73;;;24.90;95.10;;;;;;5120990;27;20844;-74
2022/10/13 09:03:56;;;;;;;10.47;5.73;;;24.60;95.50;;;;;;5105167;27;20706;-73
2022/10/13 09:06:27;;;;;;;8.17;6.73;;;24.30;95.80;;;;;;5120628;27;20507;-73
2022/10/13 09:09:19;;;;;;;8.47;5.57;;;24.00;96.10;;;;;;5099695;27;21097;-75
2022/10/13 09:11:49;;;;;;;7.27;4.97;;;23.60;96.50;;;;;;5124025;27;20948;-74
2022/10/13 09:14:27;;;;;;;6.00;5.40;;;23.40;96.20;;;;;;5103950;27;20503;-73
2022/10/13 09:16:55;;;;;;;6.10;5.27;;;23.10;96.40;;;;;;5124232;27;20766;-73
2022/10/13 09:19:27;;;;;;;7.80;5.10;;;22.90;97.00;;;;;;5120017;27;20489;-74
2022/10/13 09:22:13;;;;;;;7.50;5.40;;;22.60;97.00;;;;;;5109537;27;20454;-74
2022/10/13 09:24:38;;;;;;;8.27;6.10;;;22.40;97.20;;;;;;5110703;27;20521;-74
2022/10/13 09:27:12;;;;;;;6.23;5.63;;;22.30;97.70;;;;;;5110554;27;20452;-73
2022/10/13 09:29:38;;;;;;;6.50;5.30;;;22.10;98.00;;;;;;5107951;27;20774;-73
2022/10/13 09:32:20;;;;;;;8.43;5.97;;;22.00;98.10;;;;;;5127642;27;20451;-74
2022/10/13 09:34:50;;;;;;;6.67;5.67;;;21.90;98.90;;;;;;5126685;27;20490;-73
2022/10/13 09:37:24;;;;;;;6.63;5.63;;;21.70;99.10;;;;;;5122306;27;20789;-73
2022/10/13 09:40:10;;;;;;;9.30;6.70;;;21.70;99.50;;;;;;5128252;27;20799;-74
2022/10/13 09:42:36;;;;;;;7.00;6.27;;;21.60;99.20;;;;;;5124113;27;20923;-74
2022/10/13 09:45:14;;;;;;;6.40;5.80;;;21.50;99.80;;;;;;5131837;27;20474;-74
2022/10/13 09:47:48;;;;;;;7.37;5.67;;;21.40;99.70;;;;;;5127827;27;20920;-73
2022/10/13 09:50:19;;;;;;;7.00;5.80;;;21.40;99.90;;;;;;5128823;27;20438;-74
2022/10/13 09:52:46;;;;;;;9.50;6.40;;;21.30;99.90;;;;;;5127824;27;20645;-74
2022/10/13 09:55:32;;;;;;;8.53;5.70;;;21.30;99.90;;;;;;5128231;27;20462;-73
2022/10/13 09:58:14;;;;;;;6.47;5.30;;;21.20;99.90;;;;;;5128789;27;20419;-73
2022/10/13 10:00:41;;;;;;;8.67;5.73;;;21.10;99.90;;;;;;5122466;27;20452;-74
2022/10/13 10:03:26;;;;;;;9.27;6.00;;;21.10;99.90;;;;;;5124220;27;20463;-73
2022/10/13 10:05:58;;;;;;;7.93;5.50;;;21.10;99.90;;;;;;5126865;27;20490;-74
2022/10/13 10:08:51;;;;;;;7.10;5.80;;;21.00;99.90;;;;;;5102433;27;20427;-74
2022/10/13 10:11:29;;;;;;;6.73;5.90;;;20.90;99.90;;;;;;5107465;27;20872;-73
2022/10/13 10:13:56;;;;;;;6.30;5.70;;;20.90;99.90;;;;;;5127765;27;20423;-73
2022/10/13 10:17:09;;;;;;;8.83;6.00;;;20.90;99.90;;;;;;5112285;27;20439;-74
2022/10/13 10:19:56;;;;;;;9.53;6.50;;;20.90;99.90;;;;;;5082695;27;20541;-73
2022/10/13 10:22:33;;;;;;;8.20;5.90;;;20.80;99.90;;;;;;5121474;27;20455;-73
2022/10/13 10:25:25;;;;;;;7.07;6.37;;;20.90;99.90;;;;;;5108079;27;21039;-74
2022/10/13 10:28:34;;;;;;;7.70;6.47;;;20.90;99.90;;;;;;5124683;27;20463;-73
2022/10/13 10:31:28;;;;;;;12.53;7.87;;;20.90;99.90;;;;;;5088879;27;20825;-74
2022/10/13 10:34:22;;;;;;;10.23;7.60;;;20.90;99.90;;;;;;5122317;27;20426;-73
2022/10/13 10:36:56;;;;;;;12.47;7.40;;;20.90;99.90;;;;;;5106276;27;20480;-73
2022/10/13 10:39:42;;;;;;;11.20;7.13;;;20.90;99.90;;;;;;5121185;27;20448;-73
2022/10/13 10:42:08;;;;;;;8.73;7.60;;;20.90;99.90;;;;;;5120898;27;20435;-73
2022/10/13 10:44:43;;;;;;;10.93;7.30;;;20.90;99.90;;;;;;5121615;27;20448;-73
2022/10/13 10:47:22;;;;;;;8.60;7.67;;;20.90;99.90;;;;;;5119432;27;20199;-73
2022/10/13 10:49:48;;;;;;;9.63;6.40;;;20.90;99.90;;;;;;5122750;27;20459;-74
2022/10/13 10:52:27;;;;;;;8.03;6.40;;;20.90;99.90;;;;;;5105107;28;20498;-73
2022/10/13 10:55:07;;;;;;;10.37;6.57;;;20.90;99.90;;;;;;5118388;28;20950;-72
2022/10/13 10:57:44;;;;;;;7.47;5.80;;;20.90;99.90;;;;;;5119590;28;20427;-73
2022/10/13 11:00:21;;;;;;;6.97;5.80;;;20.90;99.90;;;;;;5121669;28;20452;-74
2022/10/13 11:02:54;;;;;;;8.17;6.37;;;20.90;99.90;;;;;;5103577;28;20427;-73
2022/10/13 11:05:20;;;;;;;8.43;6.37;;;20.90;99.90;;;;;;5122237;28;20462;-73
2022/10/13 11:07:45;;;;;;;7.20;5.87;;;20.90;99.90;;;;;;5130340;28;20414;-73
2022/10/13 11:10:16;;;;;;;7.03;6.17;;;20.90;99.90;;;;;;5127007;28;20570;-73
2022/10/13 11:13:04;;;;;;;13.40;6.13;;;20.90;99.90;;;;;;5129166;28;20214;-73
2022/10/13 11:15:45;;;;;;;7.10;6.30;;;20.90;99.90;;;;;;5122063;28;20443;-72
2022/10/13 11:18:48;;;;;;;8.20;6.33;;;20.90;99.90;;;;;;5123222;28;21011;-73
2022/10/13 11:21:14;;;;;;;8.30;6.40;;;20.90;99.90;;;;;;5107954;27;20455;-73
2022/10/13 11:23:45;;;;;;;8.20;5.90;;;20.90;99.90;;;;;;5116782;27;20489;-73
2022/10/13 11:26:39;;;;;;;8.67;6.03;;;20.90;99.90;;;;;;5112650;27;20643;-73
2022/10/13 11:29:38;;;;;;;6.73;5.63;;;21.00;99.90;;;;;;5116389;27;20447;-73
2022/10/13 11:32:03;;;;;;;8.77;6.70;;;21.00;99.90;;;;;;5129078;27;20467;-73
2022/10/13 11:34:31;;;;;;;7.97;6.07;;;21.00;99.90;;;;;;5109208;28;20454;-73
2022/10/13 11:36:59;;;;;;;9.27;6.73;;;21.00;99.90;;;;;;5105853;27;20217;-73
2022/10/13 11:39:28;;;;;;;8.43;6.47;;;21.00;99.90;;;;;;5129752;27;20451;-73
2022/10/13 11:42:12;;;;;;;11.10;7.37;;;21.00;99.90;;;;;;5132543;27;20467;-72
2022/10/13 11:44:59;;;;;;;11.77;7.30;;;21.00;99.90;;;;;;5131915;27;20993;-73
2022/10/13 11:47:24;;;;;;;10.23;6.93;;;21.00;99.90;;;;;;5131403;27;20907;-74
2022/10/13 11:50:29;;;;;;;12.13;7.87;;;21.00;99.90;;;;;;5130819;27;20662;-74
2022/10/13 11:53:00;;;;;;;8.63;6.93;;;21.00;99.90;;;;;;5115032;27;20226;-73
2022/10/13 11:55:44;;;;;;;10.27;6.90;;;21.00;99.90;;;;;;5130012;27;20453;-74
2022/10/13 11:58:22;;;;;;;11.70;7.20;;;21.00;99.90;;;;;;5129477;27;20446;-74
2022/10/13 12:01:05;;;;;;;7.97;7.10;;;21.00;99.90;;;;;;5126540;27;20531;-74
2022/10/13 12:03:43;;;;;;;7.90;7.00;;;21.00;99.90;;;;;;5119286;27;20987;-74
2022/10/13 12:06:15;;;;;;;7.50;6.70;;;21.00;99.90;;;;;;5115107;27;20449;-74
2022/10/13 12:08:48;;;;;;;11.53;7.93;;;21.00;99.90;;;;;;5110162;27;20641;-74
2022/10/13 12:11:25;;;;;;;8.13;7.30;;;21.00;99.90;;;;;;5105396;28;20471;-73
2022/10/13 12:13:51;;;;;;;11.00;7.23;;;21.10;99.90;;;;;;5117988;27;20427;-74
2022/10/13 12:16:17;;;;;;;7.30;6.57;;;21.10;99.90;;;;;;5131893;27;20431;-73
2022/10/13 12:18:43;;;;;;;10.20;7.40;;;21.10;99.90;;;;;;5125258;27;20431;-74
2022/10/13 12:21:16;;;;;;;7.70;6.57;;;21.10;99.90;;;;;;5109498;27;20461;-75
2022/10/13 12:23:42;;;;;;;7.60;6.43;;;21.10;99.90;;;;;;5128603;27;20229;-74
2022/10/13 12:26:15;;;;;;;12.20;7.10;;;21.10;99.90;;;;;;5106448;27;20822;-75
2022/10/13 12:29:00;;;;;;;10.00;7.17;;;21.10;99.90;;;;;;5127100;27;20723;-73
2022/10/13 12:31:29;;;;;;;9.27;5.93;;;21.10;99.90;;;;;;5101371;27;20464;-73
2022/10/13 12:33:59;;;;;;;9.07;6.93;;;21.10;99.90;;;;;;5118417;27;20506;-73
2022/10/13 12:36:27;;;;;;;7.00;6.30;;;21.20;99.90;;;;;;5107721;27;20443;-72
2022/10/13 12:38:56;;;;;;;9.00;6.30;;;21.20;99.90;;;;;;5104829;27;20420;-73
2022/10/13 12:41:26;;;;;;;8.57;6.93;;;21.20;99.90;;;;;;5106802;27;20500;-73
2022/10/13 12:43:52;;;;;;;10.50;7.10;;;21.20;99.90;;;;;;5123865;27;20431;-73
2022/10/13 12:46:55;;;;;;;10.73;7.13;;;21.20;99.90;;;;;;5125984;27;20427;-73
2022/10/13 12:49:25;;;;;;;11.03;7.67;;;21.20;99.90;;;;;;5118624;27;20416;-73